sensor_id;sensor_type;location;lat;lon;timestamp;P1;durP1;ratioP1;P2;durP2;ratioP2
57047;SDS011;42934;54.294;18.598;2023-11-21T00:01:43;11.55;;;6.13;;
57047;SDS011;42934;54.294;18.598;2023-11-21T00:04:12;11.30;;;5.95;;
57047;SDS011;42934;54.294;18.598;2023-11-21T00:06:42;10.80;;;6.05;;
57047;SDS011;42934;54.294;18.598;2023-11-21T00:09:13;9.73;;;5.97;;
57047;SDS011;42934;54.294;18.598;2023-11-21T00:11:44;10.15;;;5.75;;
57047;SDS011;42934;54.294;18.598;2023-11-21T00:14:15;8.98;;;5.55;;
57047;SDS011;42934;54.294;18.598;2023-11-21T00:16:44;10.75;;;5.85;;
57047;SDS011;42934;54.294;18.598;2023-11-21T00:19:13;9.30;;;5.32;;
57047;SDS011;42934;54.294;18.598;2023-11-21T00:21:43;9.18;;;5.65;;
57047;SDS011;42934;54.294;18.598;2023-11-21T00:24:12;9.27;;;5.28;;
57047;SDS011;42934;54.294;18.598;2023-11-21T00:26:41;10.23;;;6.07;;
57047;SDS011;42934;54.294;18.598;2023-11-21T00:29:11;10.30;;;5.93;;
57047;SDS011;42934;54.294;18.598;2023-11-21T00:31:41;9.30;;;5.72;;
57047;SDS011;42934;54.294;18.598;2023-11-21T00:34:11;10.93;;;5.60;;
57047;SDS011;42934;54.294;18.598;2023-11-21T00:36:41;10.03;;;5.90;;
57047;SDS011;42934;54.294;18.598;2023-11-21T00:39:10;9.98;;;5.85;;
57047;SDS011;42934;54.294;18.598;2023-11-21T00:41:39;11.75;;;6.20;;
57047;SDS011;42934;54.294;18.598;2023-11-21T00:44:08;10.40;;;5.90;;
57047;SDS011;42934;54.294;18.598;2023-11-21T00:46:38;9.38;;;5.75;;
57047;SDS011;42934;54.294;18.598;2023-11-21T00:49:09;10.00;;;6.43;;
57047;SDS011;42934;54.294;18.598;2023-11-21T00:51:38;9.60;;;5.63;;
57047;SDS011;42934;54.294;18.598;2023-11-21T00:54:07;12.10;;;6.00;;
57047;SDS011;42934;54.294;18.598;2023-11-21T00:56:38;13.55;;;5.80;;
57047;SDS011;42934;54.294;18.598;2023-11-21T00:59:07;11.93;;;5.82;;
57047;SDS011;42934;54.294;18.598;2023-11-21T01:01:37;12.77;;;5.68;;
57047;SDS011;42934;54.294;18.598;2023-11-21T01:04:06;11.35;;;5.45;;
57047;SDS011;42934;54.294;18.598;2023-11-21T01:06:38;10.93;;;5.38;;
57047;SDS011;42934;54.294;18.598;2023-11-21T01:09:08;10.25;;;5.28;;
57047;SDS011;42934;54.294;18.598;2023-11-21T01:11:37;9.73;;;5.22;;
57047;SDS011;42934;54.294;18.598;2023-11-21T01:14:07;8.65;;;5.55;;
57047;SDS011;42934;54.294;18.598;2023-11-21T01:16:37;9.20;;;5.25;;
57047;SDS011;42934;54.294;18.598;2023-11-21T01:19:06;11.38;;;5.82;;
57047;SDS011;42934;54.294;18.598;2023-11-21T01:21:37;8.40;;;5.15;;
57047;SDS011;42934;54.294;18.598;2023-11-21T01:24:06;8.25;;;4.80;;
57047;SDS011;42934;54.294;18.598;2023-11-21T01:26:36;11.75;;;5.20;;
57047;SDS011;42934;54.294;18.598;2023-11-21T01:29:05;9.48;;;5.05;;
57047;SDS011;42934;54.294;18.598;2023-11-21T01:31:34;8.18;;;4.60;;
57047;SDS011;42934;54.294;18.598;2023-11-21T01:34:03;8.50;;;4.47;;
57047;SDS011;42934;54.294;18.598;2023-11-21T01:36:34;9.68;;;5.22;;
57047;SDS011;42934;54.294;18.598;2023-11-21T01:39:03;8.75;;;4.85;;
57047;SDS011;42934;54.294;18.598;2023-11-21T01:41:35;9.43;;;5.18;;
57047;SDS011;42934;54.294;18.598;2023-11-21T01:44:04;7.40;;;4.60;;
57047;SDS011;42934;54.294;18.598;2023-11-21T01:46:36;7.65;;;4.60;;
57047;SDS011;42934;54.294;18.598;2023-11-21T01:49:06;7.53;;;4.82;;
57047;SDS011;42934;54.294;18.598;2023-11-21T01:51:38;8.55;;;5.03;;
57047;SDS011;42934;54.294;18.598;2023-11-21T01:54:08;8.10;;;4.85;;
57047;SDS011;42934;54.294;18.598;2023-11-21T01:56:44;7.10;;;4.47;;
57047;SDS011;42934;54.294;18.598;2023-11-21T01:59:16;6.38;;;4.05;;
57047;SDS011;42934;54.294;18.598;2023-11-21T02:01:48;7.53;;;4.53;;
57047;SDS011;42934;54.294;18.598;2023-11-21T02:04:18;6.30;;;4.07;;
57047;SDS011;42934;54.294;18.598;2023-11-21T02:06:49;6.80;;;3.97;;
57047;SDS011;42934;54.294;18.598;2023-11-21T02:09:23;8.90;;;4.00;;
57047;SDS011;42934;54.294;18.598;2023-11-21T02:11:54;7.00;;;4.10;;
57047;SDS011;42934;54.294;18.598;2023-11-21T02:14:25;5.90;;;4.07;;
57047;SDS011;42934;54.294;18.598;2023-11-21T02:16:55;7.25;;;4.10;;
57047;SDS011;42934;54.294;18.598;2023-11-21T02:19:24;9.57;;;4.72;;
57047;SDS011;42934;54.294;18.598;2023-11-21T02:21:56;6.57;;;4.30;;
57047;SDS011;42934;54.294;18.598;2023-11-21T02:24:28;5.47;;;3.78;;
57047;SDS011;42934;54.294;18.598;2023-11-21T02:26:58;5.60;;;3.88;;
57047;SDS011;42934;54.294;18.598;2023-11-21T02:29:27;9.30;;;3.65;;
57047;SDS011;42934;54.294;18.598;2023-11-21T02:31:57;9.87;;;3.80;;
57047;SDS011;42934;54.294;18.598;2023-11-21T02:34:26;5.82;;;3.55;;
57047;SDS011;42934;54.294;18.598;2023-11-21T02:36:55;7.75;;;4.15;;
57047;SDS011;42934;54.294;18.598;2023-11-21T02:39:24;7.13;;;4.20;;
57047;SDS011;42934;54.294;18.598;2023-11-21T02:41:55;7.25;;;4.18;;
57047;SDS011;42934;54.294;18.598;2023-11-21T02:46:53;6.07;;;3.47;;
57047;SDS011;42934;54.294;18.598;2023-11-21T02:49:24;5.22;;;3.50;;
57047;SDS011;42934;54.294;18.598;2023-11-21T02:51:55;5.65;;;3.53;;
57047;SDS011;42934;54.294;18.598;2023-11-21T02:54:24;8.73;;;3.67;;
57047;SDS011;42934;54.294;18.598;2023-11-21T02:56:55;5.82;;;3.90;;
57047;SDS011;42934;54.294;18.598;2023-11-21T02:59:25;4.57;;;3.28;;
57047;SDS011;42934;54.294;18.598;2023-11-21T03:01:54;6.13;;;3.90;;
57047;SDS011;42934;54.294;18.598;2023-11-21T03:04:23;5.03;;;3.50;;
57047;SDS011;42934;54.294;18.598;2023-11-21T03:06:53;6.60;;;3.97;;
57047;SDS011;42934;54.294;18.598;2023-11-21T03:09:22;6.28;;;3.75;;
57047;SDS011;42934;54.294;18.598;2023-11-21T03:11:51;7.03;;;3.95;;
57047;SDS011;42934;54.294;18.598;2023-11-21T03:14:22;6.47;;;3.63;;
57047;SDS011;42934;54.294;18.598;2023-11-21T03:16:52;6.72;;;3.92;;
57047;SDS011;42934;54.294;18.598;2023-11-21T03:19:21;6.07;;;3.50;;
57047;SDS011;42934;54.294;18.598;2023-11-21T03:21:50;6.13;;;3.72;;
57047;SDS011;42934;54.294;18.598;2023-11-21T03:24:20;7.00;;;4.22;;
57047;SDS011;42934;54.294;18.598;2023-11-21T03:26:49;5.53;;;3.58;;
57047;SDS011;42934;54.294;18.598;2023-11-21T03:29:18;6.53;;;3.83;;
57047;SDS011;42934;54.294;18.598;2023-11-21T03:31:49;6.50;;;3.65;;
57047;SDS011;42934;54.294;18.598;2023-11-21T03:34:22;6.78;;;3.67;;
57047;SDS011;42934;54.294;18.598;2023-11-21T03:36:54;6.82;;;4.03;;
57047;SDS011;42934;54.294;18.598;2023-11-21T03:39:23;6.18;;;3.58;;
57047;SDS011;42934;54.294;18.598;2023-11-21T03:41:53;6.72;;;3.90;;
57047;SDS011;42934;54.294;18.598;2023-11-21T03:44:22;7.65;;;4.35;;
57047;SDS011;42934;54.294;18.598;2023-11-21T03:49:23;7.65;;;4.07;;
57047;SDS011;42934;54.294;18.598;2023-11-21T03:51:52;8.88;;;4.30;;
57047;SDS011;42934;54.294;18.598;2023-11-21T03:54:21;8.45;;;4.68;;
57047;SDS011;42934;54.294;18.598;2023-11-21T03:56:50;7.18;;;4.25;;
57047;SDS011;42934;54.294;18.598;2023-11-21T03:59:20;6.90;;;4.32;;
57047;SDS011;42934;54.294;18.598;2023-11-21T04:01:51;7.00;;;4.03;;
57047;SDS011;42934;54.294;18.598;2023-11-21T04:04:24;8.00;;;4.13;;
57047;SDS011;42934;54.294;18.598;2023-11-21T04:06:53;8.60;;;4.43;;
57047;SDS011;42934;54.294;18.598;2023-11-21T04:09:23;6.63;;;3.70;;
57047;SDS011;42934;54.294;18.598;2023-11-21T04:11:52;8.63;;;4.13;;
57047;SDS011;42934;54.294;18.598;2023-11-21T04:14:22;6.53;;;3.83;;
57047;SDS011;42934;54.294;18.598;2023-11-21T04:16:52;6.28;;;3.92;;
57047;SDS011;42934;54.294;18.598;2023-11-21T04:19:21;6.28;;;3.95;;
57047;SDS011;42934;54.294;18.598;2023-11-21T04:21:52;6.18;;;3.65;;
57047;SDS011;42934;54.294;18.598;2023-11-21T04:24:21;7.72;;;4.10;;
57047;SDS011;42934;54.294;18.598;2023-11-21T04:26:50;5.85;;;3.95;;
57047;SDS011;42934;54.294;18.598;2023-11-21T04:29:20;6.32;;;4.30;;
57047;SDS011;42934;54.294;18.598;2023-11-21T04:31:49;6.10;;;4.27;;
57047;SDS011;42934;54.294;18.598;2023-11-21T04:34:18;7.75;;;4.40;;
57047;SDS011;42934;54.294;18.598;2023-11-21T04:36:49;9.73;;;4.63;;
57047;SDS011;42934;54.294;18.598;2023-11-21T04:39:18;7.60;;;4.10;;
57047;SDS011;42934;54.294;18.598;2023-11-21T04:41:48;6.45;;;3.88;;
57047;SDS011;42934;54.294;18.598;2023-11-21T04:44:17;5.43;;;3.70;;
57047;SDS011;42934;54.294;18.598;2023-11-21T04:46:47;6.07;;;3.60;;
57047;SDS011;42934;54.294;18.598;2023-11-21T04:49:16;6.60;;;3.85;;
57047;SDS011;42934;54.294;18.598;2023-11-21T04:51:45;11.32;;;4.30;;
57047;SDS011;42934;54.294;18.598;2023-11-21T04:54:15;6.43;;;4.22;;
57047;SDS011;42934;54.294;18.598;2023-11-21T04:56:45;6.35;;;4.03;;
57047;SDS011;42934;54.294;18.598;2023-11-21T04:59:14;8.30;;;4.13;;
57047;SDS011;42934;54.294;18.598;2023-11-21T05:01:43;9.38;;;4.75;;
57047;SDS011;42934;54.294;18.598;2023-11-21T05:04:13;8.30;;;4.40;;
57047;SDS011;42934;54.294;18.598;2023-11-21T05:06:42;6.70;;;4.23;;
57047;SDS011;42934;54.294;18.598;2023-11-21T05:09:11;6.78;;;4.07;;
57047;SDS011;42934;54.294;18.598;2023-11-21T05:11:43;7.00;;;4.38;;
57047;SDS011;42934;54.294;18.598;2023-11-21T05:14:12;7.38;;;4.20;;
57047;SDS011;42934;54.294;18.598;2023-11-21T05:16:41;9.03;;;4.40;;
57047;SDS011;42934;54.294;18.598;2023-11-21T05:19:10;7.63;;;4.20;;
57047;SDS011;42934;54.294;18.598;2023-11-21T05:21:40;7.35;;;4.22;;
57047;SDS011;42934;54.294;18.598;2023-11-21T05:24:09;7.35;;;4.13;;
57047;SDS011;42934;54.294;18.598;2023-11-21T05:26:38;8.98;;;4.35;;
57047;SDS011;42934;54.294;18.598;2023-11-21T05:29:08;25.13;;;5.22;;
57047;SDS011;42934;54.294;18.598;2023-11-21T05:31:38;9.05;;;5.18;;
57047;SDS011;42934;54.294;18.598;2023-11-21T05:34:07;8.93;;;4.30;;
57047;SDS011;42934;54.294;18.598;2023-11-21T05:36:36;13.23;;;5.80;;
57047;SDS011;42934;54.294;18.598;2023-11-21T05:39:05;17.10;;;6.28;;
57047;SDS011;42934;54.294;18.598;2023-11-21T05:41:35;16.85;;;6.82;;
57047;SDS011;42934;54.294;18.598;2023-11-21T05:44:04;20.08;;;8.15;;
57047;SDS011;42934;54.294;18.598;2023-11-21T05:46:34;30.17;;;12.30;;
57047;SDS011;42934;54.294;18.598;2023-11-21T05:49:04;25.30;;;9.93;;
57047;SDS011;42934;54.294;18.598;2023-11-21T05:51:35;15.15;;;7.30;;
57047;SDS011;42934;54.294;18.598;2023-11-21T05:54:04;22.27;;;8.85;;
57047;SDS011;42934;54.294;18.598;2023-11-21T05:56:35;18.42;;;8.05;;
57047;SDS011;42934;54.294;18.598;2023-11-21T05:59:04;14.32;;;6.78;;
57047;SDS011;42934;54.294;18.598;2023-11-21T06:01:35;11.32;;;5.40;;
57047;SDS011;42934;54.294;18.598;2023-11-21T06:04:05;9.52;;;4.40;;
57047;SDS011;42934;54.294;18.598;2023-11-21T06:09:04;9.70;;;4.47;;
57047;SDS011;42934;54.294;18.598;2023-11-21T06:11:36;7.80;;;4.32;;
57047;SDS011;42934;54.294;18.598;2023-11-21T06:14:04;8.68;;;4.03;;
57047;SDS011;42934;54.294;18.598;2023-11-21T06:16:36;7.15;;;4.40;;
57047;SDS011;42934;54.294;18.598;2023-11-21T06:19:07;8.52;;;4.35;;
57047;SDS011;42934;54.294;18.598;2023-11-21T06:21:37;10.27;;;4.45;;
57047;SDS011;42934;54.294;18.598;2023-11-21T06:24:06;8.80;;;4.30;;
57047;SDS011;42934;54.294;18.598;2023-11-21T06:26:36;7.90;;;4.53;;
57047;SDS011;42934;54.294;18.598;2023-11-21T06:29:05;6.53;;;4.13;;
57047;SDS011;42934;54.294;18.598;2023-11-21T06:31:34;8.70;;;4.30;;
57047;SDS011;42934;54.294;18.598;2023-11-21T06:34:05;10.93;;;4.53;;
57047;SDS011;42934;54.294;18.598;2023-11-21T06:36:36;7.90;;;3.95;;
57047;SDS011;42934;54.294;18.598;2023-11-21T06:39:05;8.15;;;4.35;;
57047;SDS011;42934;54.294;18.598;2023-11-21T06:41:35;11.95;;;4.75;;
57047;SDS011;42934;54.294;18.598;2023-11-21T06:44:05;9.15;;;4.50;;
57047;SDS011;42934;54.294;18.598;2023-11-21T06:46:37;12.00;;;4.53;;
57047;SDS011;42934;54.294;18.598;2023-11-21T06:49:09;18.10;;;4.65;;
57047;SDS011;42934;54.294;18.598;2023-11-21T06:51:39;7.90;;;4.15;;
57047;SDS011;42934;54.294;18.598;2023-11-21T06:54:08;10.20;;;4.38;;
57047;SDS011;42934;54.294;18.598;2023-11-21T06:56:37;9.40;;;3.80;;
57047;SDS011;42934;54.294;18.598;2023-11-21T06:59:06;8.30;;;4.18;;
57047;SDS011;42934;54.294;18.598;2023-11-21T07:01:37;20.30;;;4.07;;
57047;SDS011;42934;54.294;18.598;2023-11-21T07:04:08;7.93;;;4.05;;
57047;SDS011;42934;54.294;18.598;2023-11-21T07:06:37;9.30;;;4.53;;
57047;SDS011;42934;54.294;18.598;2023-11-21T07:09:06;8.35;;;4.30;;
57047;SDS011;42934;54.294;18.598;2023-11-21T07:11:36;12.30;;;4.00;;
57047;SDS011;42934;54.294;18.598;2023-11-21T07:14:09;8.10;;;4.47;;
57047;SDS011;42934;54.294;18.598;2023-11-21T07:16:40;7.35;;;4.13;;
57047;SDS011;42934;54.294;18.598;2023-11-21T07:19:09;6.78;;;4.40;;
57047;SDS011;42934;54.294;18.598;2023-11-21T07:21:39;7.18;;;4.07;;
57047;SDS011;42934;54.294;18.598;2023-11-21T07:24:08;7.70;;;4.50;;
57047;SDS011;42934;54.294;18.598;2023-11-21T07:26:38;7.63;;;4.30;;
57047;SDS011;42934;54.294;18.598;2023-11-21T07:29:07;9.38;;;4.22;;
57047;SDS011;42934;54.294;18.598;2023-11-21T07:31:38;8.50;;;4.70;;
57047;SDS011;42934;54.294;18.598;2023-11-21T07:34:09;8.38;;;4.20;;
57047;SDS011;42934;54.294;18.598;2023-11-21T07:36:39;13.90;;;4.47;;
57047;SDS011;42934;54.294;18.598;2023-11-21T07:39:08;11.35;;;4.60;;
57047;SDS011;42934;54.294;18.598;2023-11-21T07:41:37;10.50;;;4.57;;
57047;SDS011;42934;54.294;18.598;2023-11-21T07:44:11;6.63;;;4.05;;
57047;SDS011;42934;54.294;18.598;2023-11-21T07:46:42;10.50;;;4.13;;
57047;SDS011;42934;54.294;18.598;2023-11-21T07:49:12;9.30;;;4.10;;
57047;SDS011;42934;54.294;18.598;2023-11-21T07:51:43;8.95;;;3.90;;
57047;SDS011;42934;54.294;18.598;2023-11-21T07:54:12;8.70;;;4.70;;
57047;SDS011;42934;54.294;18.598;2023-11-21T07:56:43;12.32;;;4.28;;
57047;SDS011;42934;54.294;18.598;2023-11-21T07:59:12;6.22;;;3.88;;
57047;SDS011;42934;54.294;18.598;2023-11-21T08:01:43;6.70;;;3.50;;
57047;SDS011;42934;54.294;18.598;2023-11-21T08:04:12;8.13;;;4.18;;
57047;SDS011;42934;54.294;18.598;2023-11-21T08:06:42;13.10;;;4.50;;
57047;SDS011;42934;54.294;18.598;2023-11-21T08:09:11;4.97;;;3.40;;
57047;SDS011;42934;54.294;18.598;2023-11-21T08:11:40;8.27;;;3.40;;
57047;SDS011;42934;54.294;18.598;2023-11-21T08:14:09;7.63;;;3.30;;
57047;SDS011;42934;54.294;18.598;2023-11-21T08:16:39;6.07;;;3.30;;
57047;SDS011;42934;54.294;18.598;2023-11-21T08:19:09;7.80;;;3.58;;
57047;SDS011;42934;54.294;18.598;2023-11-21T08:21:39;8.23;;;3.67;;
57047;SDS011;42934;54.294;18.598;2023-11-21T08:24:08;11.48;;;3.80;;
57047;SDS011;42934;54.294;18.598;2023-11-21T08:26:38;5.13;;;3.53;;
57047;SDS011;42934;54.294;18.598;2023-11-21T08:29:07;4.88;;;3.10;;
57047;SDS011;42934;54.294;18.598;2023-11-21T08:31:37;4.53;;;3.17;;
57047;SDS011;42934;54.294;18.598;2023-11-21T08:39:08;6.60;;;3.50;;
57047;SDS011;42934;54.294;18.598;2023-11-21T08:41:38;6.85;;;3.45;;
57047;SDS011;42934;54.294;18.598;2023-11-21T08:44:08;8.37;;;3.30;;
57047;SDS011;42934;54.294;18.598;2023-11-21T08:46:37;7.70;;;3.40;;
57047;SDS011;42934;54.294;18.598;2023-11-21T08:49:10;7.13;;;3.75;;
57047;SDS011;42934;54.294;18.598;2023-11-21T08:51:40;6.30;;;3.25;;
57047;SDS011;42934;54.294;18.598;2023-11-21T08:54:08;5.38;;;3.08;;
57047;SDS011;42934;54.294;18.598;2023-11-21T08:56:38;5.78;;;3.28;;
57047;SDS011;42934;54.294;18.598;2023-11-21T08:59:07;4.97;;;3.30;;
57047;SDS011;42934;54.294;18.598;2023-11-21T09:01:37;5.55;;;3.05;;
57047;SDS011;42934;54.294;18.598;2023-11-21T09:04:06;4.80;;;2.90;;
57047;SDS011;42934;54.294;18.598;2023-11-21T09:06:37;9.10;;;3.05;;
57047;SDS011;42934;54.294;18.598;2023-11-21T09:09:06;4.85;;;2.85;;
57047;SDS011;42934;54.294;18.598;2023-11-21T09:11:37;4.97;;;2.90;;
57047;SDS011;42934;54.294;18.598;2023-11-21T09:14:06;4.32;;;2.65;;
57047;SDS011;42934;54.294;18.598;2023-11-21T09:16:35;4.53;;;2.92;;
57047;SDS011;42934;54.294;18.598;2023-11-21T09:19:05;4.55;;;2.42;;
57047;SDS011;42934;54.294;18.598;2023-11-21T09:21:34;4.47;;;2.38;;
57047;SDS011;42934;54.294;18.598;2023-11-21T09:24:06;5.00;;;2.70;;
57047;SDS011;42934;54.294;18.598;2023-11-21T09:26:36;4.22;;;2.63;;
57047;SDS011;42934;54.294;18.598;2023-11-21T09:29:05;5.55;;;2.88;;
57047;SDS011;42934;54.294;18.598;2023-11-21T09:31:35;5.88;;;2.90;;
57047;SDS011;42934;54.294;18.598;2023-11-21T09:34:05;5.55;;;2.60;;
57047;SDS011;42934;54.294;18.598;2023-11-21T09:36:34;6.32;;;2.50;;
57047;SDS011;42934;54.294;18.598;2023-11-21T09:39:06;6.07;;;2.47;;
57047;SDS011;42934;54.294;18.598;2023-11-21T09:41:37;4.70;;;2.10;;
57047;SDS011;42934;54.294;18.598;2023-11-21T09:44:13;3.65;;;2.00;;
57047;SDS011;42934;54.294;18.598;2023-11-21T09:46:47;3.13;;;2.00;;
57047;SDS011;42934;54.294;18.598;2023-11-21T09:49:17;5.10;;;2.30;;
57047;SDS011;42934;54.294;18.598;2023-11-21T09:51:54;3.20;;;1.77;;
57047;SDS011;42934;54.294;18.598;2023-11-21T09:54:23;3.22;;;1.98;;
57047;SDS011;42934;54.294;18.598;2023-11-21T09:56:56;2.28;;;1.70;;
57047;SDS011;42934;54.294;18.598;2023-11-21T09:59:27;2.83;;;1.88;;
57047;SDS011;42934;54.294;18.598;2023-11-21T10:01:58;6.68;;;2.05;;
57047;SDS011;42934;54.294;18.598;2023-11-21T10:04:27;4.03;;;1.88;;
57047;SDS011;42934;54.294;18.598;2023-11-21T10:06:59;3.75;;;2.45;;
57047;SDS011;42934;54.294;18.598;2023-11-21T10:09:30;4.68;;;2.03;;
57047;SDS011;42934;54.294;18.598;2023-11-21T10:11:59;3.17;;;2.03;;
57047;SDS011;42934;54.294;18.598;2023-11-21T10:14:29;4.07;;;2.20;;
57047;SDS011;42934;54.294;18.598;2023-11-21T10:16:59;3.70;;;2.20;;
57047;SDS011;42934;54.294;18.598;2023-11-21T10:19:28;5.00;;;2.45;;
57047;SDS011;42934;54.294;18.598;2023-11-21T10:22:00;4.25;;;2.40;;
57047;SDS011;42934;54.294;18.598;2023-11-21T10:24:30;4.13;;;2.60;;
57047;SDS011;42934;54.294;18.598;2023-11-21T10:27:14;5.95;;;2.35;;
57047;SDS011;42934;54.294;18.598;2023-11-21T10:29:43;3.85;;;2.33;;
57047;SDS011;42934;54.294;18.598;2023-11-21T10:32:13;5.87;;;2.43;;
57047;SDS011;42934;54.294;18.598;2023-11-21T10:34:42;7.25;;;2.58;;
57047;SDS011;42934;54.294;18.598;2023-11-21T10:37:24;8.00;;;2.83;;
57047;SDS011;42934;54.294;18.598;2023-11-21T10:39:57;6.78;;;2.50;;
57047;SDS011;42934;54.294;18.598;2023-11-21T10:42:26;4.05;;;2.30;;
57047;SDS011;42934;54.294;18.598;2023-11-21T10:44:55;3.20;;;2.28;;
57047;SDS011;42934;54.294;18.598;2023-11-21T10:47:25;3.73;;;2.33;;
57047;SDS011;42934;54.294;18.598;2023-11-21T10:49:55;5.30;;;2.50;;
57047;SDS011;42934;54.294;18.598;2023-11-21T10:52:27;2.75;;;2.05;;
57047;SDS011;42934;54.294;18.598;2023-11-21T10:54:57;7.55;;;2.58;;
57047;SDS011;42934;54.294;18.598;2023-11-21T10:57:26;3.42;;;2.25;;
57047;SDS011;42934;54.294;18.598;2023-11-21T10:59:56;5.65;;;2.15;;
57047;SDS011;42934;54.294;18.598;2023-11-21T11:02:25;5.75;;;2.50;;
57047;SDS011;42934;54.294;18.598;2023-11-21T11:04:59;8.45;;;2.33;;
57047;SDS011;42934;54.294;18.598;2023-11-21T11:07:30;3.60;;;2.30;;
57047;SDS011;42934;54.294;18.598;2023-11-21T11:10:01;4.75;;;2.10;;
57047;SDS011;42934;54.294;18.598;2023-11-21T11:12:31;3.40;;;2.40;;
57047;SDS011;42934;54.294;18.598;2023-11-21T11:15:00;3.03;;;2.17;;
57047;SDS011;42934;54.294;18.598;2023-11-21T11:17:32;5.95;;;2.20;;
57047;SDS011;42934;54.294;18.598;2023-11-21T11:20:01;5.68;;;2.70;;
57047;SDS011;42934;54.294;18.598;2023-11-21T11:22:36;3.22;;;2.17;;
57047;SDS011;42934;54.294;18.598;2023-11-21T11:25:25;4.75;;;2.47;;
57047;SDS011;42934;54.294;18.598;2023-11-21T11:28:03;2.95;;;2.15;;
57047;SDS011;42934;54.294;18.598;2023-11-21T11:30:45;2.78;;;1.92;;
57047;SDS011;42934;54.294;18.598;2023-11-21T11:33:29;3.95;;;2.38;;
57047;SDS011;42934;54.294;18.598;2023-11-21T11:36:05;4.10;;;2.30;;
57047;SDS011;42934;54.294;18.598;2023-11-21T11:38:45;4.07;;;2.42;;
57047;SDS011;42934;54.294;18.598;2023-11-21T11:41:24;5.50;;;2.85;;
57047;SDS011;42934;54.294;18.598;2023-11-21T11:43:54;6.80;;;2.60;;
57047;SDS011;42934;54.294;18.598;2023-11-21T11:49:10;4.25;;;2.28;;
57047;SDS011;42934;54.294;18.598;2023-11-21T11:54:55;3.17;;;2.10;;
57047;SDS011;42934;54.294;18.598;2023-11-21T11:57:24;4.13;;;2.50;;
57047;SDS011;42934;54.294;18.598;2023-11-21T12:00:10;6.27;;;2.77;;
57047;SDS011;42934;54.294;18.598;2023-11-21T12:02:44;5.28;;;2.30;;
57047;SDS011;42934;54.294;18.598;2023-11-21T12:05:15;6.20;;;2.60;;
57047;SDS011;42934;54.294;18.598;2023-11-21T12:07:46;3.60;;;2.80;;
57047;SDS011;42934;54.294;18.598;2023-11-21T12:10:21;5.35;;;2.70;;
57047;SDS011;42934;54.294;18.598;2023-11-21T12:12:55;5.97;;;2.33;;
57047;SDS011;42934;54.294;18.598;2023-11-21T12:15:26;4.88;;;2.45;;
57047;SDS011;42934;54.294;18.598;2023-11-21T12:17:57;6.50;;;2.15;;
57047;SDS011;42934;54.294;18.598;2023-11-21T12:20:27;4.20;;;2.53;;
57047;SDS011;42934;54.294;18.598;2023-11-21T12:22:59;3.13;;;2.15;;
57047;SDS011;42934;54.294;18.598;2023-11-21T12:25:31;4.43;;;2.60;;
57047;SDS011;42934;54.294;18.598;2023-11-21T12:28:01;5.65;;;2.90;;
57047;SDS011;42934;54.294;18.598;2023-11-21T12:30:34;7.35;;;2.47;;
57047;SDS011;42934;54.294;18.598;2023-11-21T12:33:05;6.72;;;2.50;;
57047;SDS011;42934;54.294;18.598;2023-11-21T12:35:37;4.40;;;2.90;;
57047;SDS011;42934;54.294;18.598;2023-11-21T12:38:07;5.15;;;2.50;;
57047;SDS011;42934;54.294;18.598;2023-11-21T12:43:07;5.07;;;2.50;;
57047;SDS011;42934;54.294;18.598;2023-11-21T12:45:37;5.25;;;2.47;;
57047;SDS011;42934;54.294;18.598;2023-11-21T12:48:06;7.82;;;2.63;;
57047;SDS011;42934;54.294;18.598;2023-11-21T12:50:38;3.50;;;2.20;;
57047;SDS011;42934;54.294;18.598;2023-11-21T12:53:09;5.22;;;2.75;;
57047;SDS011;42934;54.294;18.598;2023-11-21T12:55:43;3.65;;;2.47;;
57047;SDS011;42934;54.294;18.598;2023-11-21T12:58:17;3.42;;;2.70;;
57047;SDS011;42934;54.294;18.598;2023-11-21T13:00:50;7.40;;;2.80;;
57047;SDS011;42934;54.294;18.598;2023-11-21T13:03:21;4.75;;;2.92;;
57047;SDS011;42934;54.294;18.598;2023-11-21T13:05:53;7.75;;;3.13;;
57047;SDS011;42934;54.294;18.598;2023-11-21T13:08:25;6.22;;;3.17;;
57047;SDS011;42934;54.294;18.598;2023-11-21T13:10:59;4.90;;;2.97;;
57047;SDS011;42934;54.294;18.598;2023-11-21T13:13:29;5.82;;;3.40;;
57047;SDS011;42934;54.294;18.598;2023-11-21T13:15:59;7.78;;;3.00;;
57047;SDS011;42934;54.294;18.598;2023-11-21T13:18:31;4.80;;;2.63;;
57047;SDS011;42934;54.294;18.598;2023-11-21T13:21:01;9.25;;;3.20;;
57047;SDS011;42934;54.294;18.598;2023-11-21T13:23:36;5.57;;;3.13;;
57047;SDS011;42934;54.294;18.598;2023-11-21T13:26:09;7.30;;;3.47;;
57047;SDS011;42934;54.294;18.598;2023-11-21T13:28:39;6.65;;;3.33;;
57047;SDS011;42934;54.294;18.598;2023-11-21T13:31:14;6.65;;;3.42;;
57047;SDS011;42934;54.294;18.598;2023-11-21T13:33:53;5.93;;;3.67;;
57047;SDS011;42934;54.294;18.598;2023-11-21T13:36:32;5.65;;;3.17;;
57047;SDS011;42934;54.294;18.598;2023-11-21T13:39:03;6.20;;;3.15;;
57047;SDS011;42934;54.294;18.598;2023-11-21T13:41:36;9.07;;;4.03;;
57047;SDS011;42934;54.294;18.598;2023-11-21T13:44:06;6.35;;;3.60;;
57047;SDS011;42934;54.294;18.598;2023-11-21T13:46:44;4.57;;;3.20;;
57047;SDS011;42934;54.294;18.598;2023-11-21T13:49:13;5.85;;;3.17;;
57047;SDS011;42934;54.294;18.598;2023-11-21T13:51:43;9.15;;;3.35;;
57047;SDS011;42934;54.294;18.598;2023-11-21T13:54:15;12.13;;;4.30;;
57047;SDS011;42934;54.294;18.598;2023-11-21T13:56:47;9.18;;;4.05;;
57047;SDS011;42934;54.294;18.598;2023-11-21T13:59:17;5.93;;;3.63;;
57047;SDS011;42934;54.294;18.598;2023-11-21T14:01:52;6.10;;;3.42;;
57047;SDS011;42934;54.294;18.598;2023-11-21T14:04:24;7.90;;;3.58;;
57047;SDS011;42934;54.294;18.598;2023-11-21T14:07:14;7.55;;;3.85;;
57047;SDS011;42934;54.294;18.598;2023-11-21T14:09:53;8.30;;;4.28;;
57047;SDS011;42934;54.294;18.598;2023-11-21T14:12:24;6.65;;;3.60;;
57047;SDS011;42934;54.294;18.598;2023-11-21T14:14:54;5.93;;;3.45;;
57047;SDS011;42934;54.294;18.598;2023-11-21T14:17:23;7.13;;;3.13;;
57047;SDS011;42934;54.294;18.598;2023-11-21T14:19:54;4.97;;;2.80;;
57047;SDS011;42934;54.294;18.598;2023-11-21T14:22:23;7.20;;;3.70;;
57047;SDS011;42934;54.294;18.598;2023-11-21T14:24:53;5.80;;;2.95;;
57047;SDS011;42934;54.294;18.598;2023-11-21T14:27:27;6.03;;;3.20;;
57047;SDS011;42934;54.294;18.598;2023-11-21T14:29:56;5.60;;;3.22;;
57047;SDS011;42934;54.294;18.598;2023-11-21T14:32:26;5.68;;;3.15;;
57047;SDS011;42934;54.294;18.598;2023-11-21T14:34:57;7.70;;;3.85;;
57047;SDS011;42934;54.294;18.598;2023-11-21T14:37:26;7.47;;;4.13;;
57047;SDS011;42934;54.294;18.598;2023-11-21T14:39:55;9.48;;;4.80;;
57047;SDS011;42934;54.294;18.598;2023-11-21T14:42:26;7.27;;;3.90;;
57047;SDS011;42934;54.294;18.598;2023-11-21T14:44:56;6.85;;;3.67;;
57047;SDS011;42934;54.294;18.598;2023-11-21T14:47:30;5.68;;;3.38;;
57047;SDS011;42934;54.294;18.598;2023-11-21T14:49:59;7.55;;;3.70;;
57047;SDS011;42934;54.294;18.598;2023-11-21T14:52:48;6.68;;;3.63;;
57047;SDS011;42934;54.294;18.598;2023-11-21T14:55:22;6.30;;;3.63;;
57047;SDS011;42934;54.294;18.598;2023-11-21T14:58:00;7.20;;;3.65;;
57047;SDS011;42934;54.294;18.598;2023-11-21T15:00:31;7.78;;;4.32;;
57047;SDS011;42934;54.294;18.598;2023-11-21T15:03:11;6.63;;;3.58;;
57047;SDS011;42934;54.294;18.598;2023-11-21T15:06:03;7.10;;;3.50;;
57047;SDS011;42934;54.294;18.598;2023-11-21T15:08:49;7.68;;;3.63;;
57047;SDS011;42934;54.294;18.598;2023-11-21T15:11:22;8.60;;;3.92;;
57047;SDS011;42934;54.294;18.598;2023-11-21T15:13:59;8.18;;;4.40;;
57047;SDS011;42934;54.294;18.598;2023-11-21T15:16:33;10.60;;;4.68;;